Sagar Kanya — VTJR — position and weather

sailwx.info

Track history (hours):
 
Tides and Currents Weather Stations Pressure Air Temp Water Temp Dewpoint Dewpoint Depression Visibility Wind Speed Wind Dir Waves Ship Positions

Oceanographic research ship Sagar Kanya (India)

Detailed information on ship capabilities available from University of Delaware's Ocean Information Center.

Last reported at 2019-Jun-19 18:06 UTC. Time now 2019-Jun-19 21:33 UTC.
Position N 13°06' E 080°18'.

Type: Other ship. MMSI: 419320000.

Wind from 210 at 6 knots

Barometer 1005.3 mb
Air temperature 29.5 ° C

Date/timePositionNaut miles runAvg speedWind from/ knotsBaromVisibWave heightAir tempDewpointWater temp
2019-Jun-19 18:06N 13°06' E 080°18'0 0.0 210 / 61005.3 29.5
2019-Jun-19 15:06N 13°06' E 080°18'0 0.0 200 / 61004.9 29.5
2019-Jun-19 12:06N 13°06' E 080°18'0 0.0 190 / 101002.5 29.9
2019-Jun-19 08:36N 13°06' E 080°18'0 0.0 140 / 101003.0 31.5
2019-Jun-19 06:06N 13°06' E 080°18'0 0.0 320 / 41004.1 37.5
2019-Jun-19 03:06N 13°06' E 080°18'0 0.0 300 / 81004.4 33.6
2019-Jun-18 23:36N 13°06' E 080°18'0 0.0 290 / 41003.3 32.1
2019-Jun-18 21:06N 13°06' E 080°18'0 0.0 260 / 21003.5 30.9
2019-Jun-18 18:06N 13°06' E 080°18'0 0.0 200 / 81005.8 29.6
2019-Jun-18 15:06N 13°06' E 080°18'0 0.0 180 / 81005.2 29.8
2019-Jun-18 12:06N 13°06' E 080°18'0 0.0 160 / 61003.5 31.4
2019-Jun-18 09:06N 13°06' E 080°18'0 0.0 130 / 61003.2 32.7
2019-Jun-18 06:06N 13°06' E 080°18'0 0.0 330 / 41005.4 37.6
2019-Jun-18 03:06N 13°06' E 080°18'0 0.0 310 / 41006.7 33.1
2019-Jun-17 23:36N 13°06' E 080°18'0 0.0 260 / 21005.3 29.8
2019-Jun-17 09:06N 13°06' E 080°18'0 0.0 110 / 81005.3 31.6
2019-Jun-17 06:06N 13°06' E 080°18'0 0.0 350 / 41006.8 37.4
2019-Jun-17 03:06N 13°06' E 080°18'0 0.0 300 / 61006.4 34.2
2019-Jun-17 00:06N 13°06' E 080°18'0 0.0 260 / 21005.9 30.7
2019-Jun-16 21:06N 13°06' E 080°18'0 0.0 220 / 61005.6 28.7
2019-Jun-16 18:06N 13°06' E 080°18'0 0.0 210 / 81007.4 29.5
2019-Jun-16 14:36N 13°06' E 080°18'0 0.0 200 / 81006.1 29.5
2019-Jun-16 12:06N 13°06' E 080°18'0 0.0 180 / 81004.2 30.5
2019-Jun-16 09:06N 13°06' E 080°18'0 0.0 170 / 81004.6 30.8
2019-Jun-16 06:06N 13°06' E 080°18'0 0.0 080 / 21006.3 37.7
2019-Jun-16 03:06N 13°06' E 080°18'0 0.0 300 / 61007.2 34.1
2019-Jun-16 00:06N 13°06' E 080°18'0 0.0 280 / 41005.9 30.7
2019-Jun-15 21:06N 13°06' E 080°18'0 0.0 240 / 21004.9 30.4
2019-Jun-15 18:06N 13°06' E 080°18'0 0.0 220 / 61006.6 28.9
2019-Jun-15 15:06N 13°06' E 080°18'0 0.0 200 / 81006.8 28.9
2019-Jun-15 12:06N 13°06' E 080°18'0 0.0 180 / 81003.7 30.5
2019-Jun-15 08:36N 13°06' E 080°18'0 0.0 190 / 81003.8 30.9
2019-Jun-15 05:36N 13°06' E 080°18'0 0.0 300 / 61006.3 36.5
2019-Jun-15 03:06N 13°06' E 080°18'6 1.0 310 / 101007.3 32.8
2019-Jun-14 21:06N 13°06' E 080°24'0 0.0 240 / 171004.7 29.5
2019-Jun-14 17:36N 13°06' E 080°24'0 0.0 220 / 251006.5 29.0
2019-Jun-14 15:06N 13°06' E 080°24'12 4.0 240 / 171005.5 28.5
2019-Jun-14 12:06N 12°54' E 080°24'19 6.3 160 / 81003.0 30.8
2019-Jun-14 09:06N 12°36' E 080°30'38 6.3 200 / 141004.6 30.1
2019-Jun-14 03:06N 12°00' E 080°42'27 7.6 260 / 141008.1 30.2
2019-Jun-13 23:36N 11°36' E 080°54'31 5.6 240 / 141006.1 29.6
2019-Jun-13 18:06N 11°06' E 081°00'19 6.3 240 / 211007.7 29.9
2019-Jun-13 15:06N 10°48' E 081°06'19 5.4 230 / 211007.4 30.3
2019-Jun-13 11:36N 10°30' E 081°12'13 5.3 250 / 141005.9 31.4
2019-Jun-13 09:06N 10°18' E 081°18'19 5.4 270 / 191005.4 30.7
2019-Jun-13 05:36N 10°00' E 081°24'13 5.4 260 / 171008.4 30.5
2019-Jun-13 03:06N 09°48' E 081°30'25 4.1 240 / 211008.2 29.6
2019-Jun-12 21:06N 09°24' E 081°36'25 4.1 250 / 251005.0 28.9
2019-Jun-12 15:07N 09°00' E 081°42'13 4.5 250 / 211007.8 30.1
2019-Jun-12 12:07N 08°48' E 081°48'13 3.8 250 / 211005.5 30.8
2019-Jun-12 08:37N 08°36' E 081°54'13 5.4 280 / 191005.5 31.8
2019-Jun-12 06:07N 08°24' E 082°00'18 6.0 260 / 211007.0 31.0
2019-Jun-12 03:07N 08°06' E 082°00'13 4.5 220 / 141008.9 30.4
2019-Jun-12 00:07N 07°54' E 082°06'48 5.4 280 / 101008.6 29.5
2019-Jun-11 15:07N 07°06' E 082°12'19 6.3 210 / 141008.7 28.4
2019-Jun-11 12:07N 06°48' E 082°06'18 6.0 200 / 161006.4 28.7
2019-Jun-11 09:07N 06°30' E 082°06'13 4.4 230 / 211006.5 29.5
2019-Jun-11 06:07N 06°24' E 081°54'25 8.5 260 / 211008.7 28.0
2019-Jun-11 03:07N 06°06' E 081°36'27 8.9 240 / 161010.0 29.1
2019-Jun-11 00:07N 05°54' E 081°12'22 7.2 260 / 211009.3 29.0
2019-Jun-10 21:07N 05°42' E 080°54'24 8.0 240 / 191008.7 28.9
2019-Jun-10 18:07N 05°42' E 080°30'36 6.1 230 / 171010.8 29.0
2019-Jun-10 12:07N 05°48' E 079°54'22 7.2 260 / 191008.3 29.3
2019-Jun-10 09:07N 06°00' E 079°36'17 5.6 260 / 191008.3 29.3
2019-Jun-10 06:07N 06°12' E 079°24'17 4.8 260 / 191008.9 27.1
2019-Jun-10 02:37N 06°24' E 079°12'17 6.8 250 / 191009.7 27.4
2019-Jun-10 00:07N 06°36' E 079°00'22 7.2 250 / 231008.5 29.1
2019-Jun-09 21:07N 06°48' E 078°42'13 4.4 260 / 231008.2 26.4
2019-Jun-09 18:07N 06°54' E 078°30'34 5.6 280 / 231010.0 24.8
2019-Jun-09 12:07N 07°18' E 078°06'13 4.4 260 / 271006.9 29.2
2019-Jun-09 09:07N 07°24' E 077°54'13 4.5 260 / 271007.0 29.2
2019-Jun-09 06:07N 07°36' E 077°48'30 5.0 260 / 311009.0 26.4
2019-Jun-09 00:07N 07°54' E 077°24'17 5.6 260 / 231008.1 29.2
2019-Jun-08 21:07N 08°06' E 077°12'13 4.4 260 / 81008.3 26.8
2019-Jun-08 18:07N 08°12' E 077°00'17 5.6 270 / 271010.0 27.8
2019-Jun-08 15:07N 08°24' E 076°48'13 4.4 290 / 171009.3 26.4
2019-Jun-08 12:07N 08°30' E 076°36'13 4.5 200 / 81006.8 27.9
2019-Jun-08 09:07N 08°42' E 076°30'13 4.4 250 / 161007.4 28.6
2019-Jun-08 06:07N 08°48' E 076°18'17 5.6 230 / 141009.2 29.7
2019-Jun-08 03:07N 09°00' E 076°06'13 4.5 230 / 121009.3 29.3
2019-Jun-08 00:07N 09°12' E 076°00'22 6.2 250 / 161007.7 28.8
2019-Jun-07 20:37N 09°30' E 075°48'13 5.4 270 / 81009.0 28.9
2019-Jun-07 18:07N 09°42' E 075°42'22 7.2 290 / 161010.6 29.1
2019-Jun-07 15:07N 10°00' E 075°30'0 0.0 280 / 191009.6 29.0
2019-Jun-07 12:07N 10°00' E 075°30'8 2.8 260 / 121008.0 29.1
2019-Jun-07 09:07N 10°06' E 075°24'19 6.3 280 / 211007.6 28.9
2019-Jun-07 06:07N 10°24' E 075°18'30 5.0 280 / 141008.5 28.5
2019-Jun-07 00:07N 10°48' E 075°00'   300 / 41008.5 29.6
Track history (hours):
 
Tides and Currents Weather Stations Pressure Air Temp Water Temp Dewpoint Dewpoint Depression Visibility Wind Speed Wind Dir Waves Ship Positions

Oceanographic research ship Sagar Kanya (India)

Detailed information on ship capabilities available from University of Delaware's Ocean Information Center.

Last reported at 2019-Jun-19 18:06 UTC. Time now 2019-Jun-19 21:33 UTC.
Position N 13°06' E 080°18'.

Type: Other ship. MMSI: 419320000.

Wind from 210 at 6 knots

Barometer 1005.3 mb
Air temperature 29.5 ° C

Date/timePositionNaut miles runAvg speedWind from/ knotsBaromVisibWave heightAir tempDewpointWater temp
2019-Jun-19 18:06N 13°06' E 080°18'0 0.0 210 / 61005.3 29.5
2019-Jun-19 15:06N 13°06' E 080°18'0 0.0 200 / 61004.9 29.5
2019-Jun-19 12:06N 13°06' E 080°18'0 0.0 190 / 101002.5 29.9
2019-Jun-19 08:36N 13°06' E 080°18'0 0.0 140 / 101003.0 31.5
2019-Jun-19 06:06N 13°06' E 080°18'0 0.0 320 / 41004.1 37.5
2019-Jun-19 03:06N 13°06' E 080°18'0 0.0 300 / 81004.4 33.6
2019-Jun-18 23:36N 13°06' E 080°18'0 0.0 290 / 41003.3 32.1
2019-Jun-18 21:06N 13°06' E 080°18'0 0.0 260 / 21003.5 30.9
2019-Jun-18 18:06N 13°06' E 080°18'0 0.0 200 / 81005.8 29.6
2019-Jun-18 15:06N 13°06' E 080°18'0 0.0 180 / 81005.2 29.8
2019-Jun-18 12:06N 13°06' E 080°18'0 0.0 160 / 61003.5 31.4
2019-Jun-18 09:06N 13°06' E 080°18'0 0.0 130 / 61003.2 32.7
2019-Jun-18 06:06N 13°06' E 080°18'0 0.0 330 / 41005.4 37.6
2019-Jun-18 03:06N 13°06' E 080°18'0 0.0 310 / 41006.7 33.1
2019-Jun-17 23:36N 13°06' E 080°18'0 0.0 260 / 21005.3 29.8
2019-Jun-17 09:06N 13°06' E 080°18'0 0.0 110 / 81005.3 31.6
2019-Jun-17 06:06N 13°06' E 080°18'0 0.0 350 / 41006.8 37.4
2019-Jun-17 03:06N 13°06' E 080°18'0 0.0 300 / 61006.4 34.2
2019-Jun-17 00:06N 13°06' E 080°18'0 0.0 260 / 21005.9 30.7
2019-Jun-16 21:06N 13°06' E 080°18'0 0.0 220 / 61005.6 28.7
2019-Jun-16 18:06N 13°06' E 080°18'0 0.0 210 / 81007.4 29.5
2019-Jun-16 14:36N 13°06' E 080°18'0 0.0 200 / 81006.1 29.5
2019-Jun-16 12:06N 13°06' E 080°18'0 0.0 180 / 81004.2 30.5
2019-Jun-16 09:06N 13°06' E 080°18'0 0.0 170 / 81004.6 30.8
2019-Jun-16 06:06N 13°06' E 080°18'0 0.0 080 / 21006.3 37.7
2019-Jun-16 03:06N 13°06' E 080°18'0 0.0 300 / 61007.2 34.1
2019-Jun-16 00:06N 13°06' E 080°18'0 0.0 280 / 41005.9 30.7
2019-Jun-15 21:06N 13°06' E 080°18'0 0.0 240 / 21004.9 30.4
2019-Jun-15 18:06N 13°06' E 080°18'0 0.0 220 / 61006.6 28.9
2019-Jun-15 15:06N 13°06' E 080°18'0 0.0 200 / 81006.8 28.9
2019-Jun-15 12:06N 13°06' E 080°18'0 0.0 180 / 81003.7 30.5
2019-Jun-15 08:36N 13°06' E 080°18'0 0.0 190 / 81003.8 30.9
2019-Jun-15 05:36N 13°06' E 080°18'0 0.0 300 / 61006.3 36.5
2019-Jun-15 03:06N 13°06' E 080°18'6 1.0 310 / 101007.3 32.8
2019-Jun-14 21:06N 13°06' E 080°24'0 0.0 240 / 171004.7 29.5
2019-Jun-14 17:36N 13°06' E 080°24'0 0.0 220 / 251006.5 29.0
2019-Jun-14 15:06N 13°06' E 080°24'12 4.0 240 / 171005.5 28.5
2019-Jun-14 12:06N 12°54' E 080°24'19 6.3 160 / 81003.0 30.8
2019-Jun-14 09:06N 12°36' E 080°30'38 6.3 200 / 141004.6 30.1
2019-Jun-14 03:06N 12°00' E 080°42'27 7.6 260 / 141008.1 30.2
2019-Jun-13 23:36N 11°36' E 080°54'31 5.6 240 / 141006.1 29.6
2019-Jun-13 18:06N 11°06' E 081°00'19 6.3 240 / 211007.7 29.9
2019-Jun-13 15:06N 10°48' E 081°06'19 5.4 230 / 211007.4 30.3
2019-Jun-13 11:36N 10°30' E 081°12'13 5.3 250 / 141005.9 31.4
2019-Jun-13 09:06N 10°18' E 081°18'19 5.4 270 / 191005.4 30.7
2019-Jun-13 05:36N 10°00' E 081°24'13 5.4 260 / 171008.4 30.5
2019-Jun-13 03:06N 09°48' E 081°30'25 4.1 240 / 211008.2 29.6
2019-Jun-12 21:06N 09°24' E 081°36'25 4.1 250 / 251005.0 28.9
2019-Jun-12 15:07N 09°00' E 081°42'13 4.5 250 / 211007.8 30.1
2019-Jun-12 12:07N 08°48' E 081°48'13 3.8 250 / 211005.5 30.8
2019-Jun-12 08:37N 08°36' E 081°54'13 5.4 280 / 191005.5 31.8
2019-Jun-12 06:07N 08°24' E 082°00'18 6.0 260 / 211007.0 31.0
2019-Jun-12 03:07N 08°06' E 082°00'13 4.5 220 / 141008.9 30.4
2019-Jun-12 00:07N 07°54' E 082°06'48 5.4 280 / 101008.6 29.5
2019-Jun-11 15:07N 07°06' E 082°12'19 6.3 210 / 141008.7 28.4
2019-Jun-11 12:07N 06°48' E 082°06'18 6.0 200 / 161006.4 28.7
2019-Jun-11 09:07N 06°30' E 082°06'13 4.4 230 / 211006.5 29.5
2019-Jun-11 06:07N 06°24' E 081°54'25 8.5 260 / 211008.7 28.0
2019-Jun-11 03:07N 06°06' E 081°36'27 8.9 240 / 161010.0 29.1
2019-Jun-11 00:07N 05°54' E 081°12'22 7.2 260 / 211009.3 29.0
2019-Jun-10 21:07N 05°42' E 080°54'24 8.0 240 / 191008.7 28.9
2019-Jun-10 18:07N 05°42' E 080°30'36 6.1 230 / 171010.8 29.0
2019-Jun-10 12:07N 05°48' E 079°54'22 7.2 260 / 191008.3 29.3
2019-Jun-10 09:07N 06°00' E 079°36'17 5.6 260 / 191008.3 29.3
2019-Jun-10 06:07N 06°12' E 079°24'17 4.8 260 / 191008.9 27.1
2019-Jun-10 02:37N 06°24' E 079°12'17 6.8 250 / 191009.7 27.4
2019-Jun-10 00:07N 06°36' E 079°00'22 7.2 250 / 231008.5 29.1
2019-Jun-09 21:07N 06°48' E 078°42'13 4.4 260 / 231008.2 26.4
2019-Jun-09 18:07N 06°54' E 078°30'34 5.6 280 / 231010.0 24.8
2019-Jun-09 12:07N 07°18' E 078°06'13 4.4 260 / 271006.9 29.2
2019-Jun-09 09:07N 07°24' E 077°54'13 4.5 260 / 271007.0 29.2
2019-Jun-09 06:07N 07°36' E 077°48'30 5.0 260 / 311009.0 26.4
2019-Jun-09 00:07N 07°54' E 077°24'17 5.6 260 / 231008.1 29.2
2019-Jun-08 21:07N 08°06' E 077°12'13 4.4 260 / 81008.3 26.8
2019-Jun-08 18:07N 08°12' E 077°00'17 5.6 270 / 271010.0 27.8
2019-Jun-08 15:07N 08°24' E 076°48'13 4.4 290 / 171009.3 26.4
2019-Jun-08 12:07N 08°30' E 076°36'13 4.5 200 / 81006.8 27.9
2019-Jun-08 09:07N 08°42' E 076°30'13 4.4 250 / 161007.4 28.6
2019-Jun-08 06:07N 08°48' E 076°18'17 5.6 230 / 141009.2 29.7
2019-Jun-08 03:07N 09°00' E 076°06'13 4.5 230 / 121009.3 29.3
2019-Jun-08 00:07N 09°12' E 076°00'22 6.2 250 / 161007.7 28.8
2019-Jun-07 20:37N 09°30' E 075°48'13 5.4 270 / 81009.0 28.9
2019-Jun-07 18:07N 09°42' E 075°42'22 7.2 290 / 161010.6 29.1
2019-Jun-07 15:07N 10°00' E 075°30'0 0.0 280 / 191009.6 29.0
2019-Jun-07 12:07N 10°00' E 075°30'8 2.8 260 / 121008.0 29.1
2019-Jun-07 09:07N 10°06' E 075°24'19 6.3 280 / 211007.6 28.9
2019-Jun-07 06:07N 10°24' E 075°18'30 5.0 280 / 141008.5 28.5
2019-Jun-07 00:07N 10°48' E 075°00'   300 / 41008.5 29.6

Dump ship's entire track history